sensor_id;sensor_type;location;lat;lon;timestamp;temperature;humidity
17715;DHT22;8977;50.902;4.314;2023-08-12T00:00:19;23.60;99.90
17715;DHT22;8977;50.902;4.314;2023-08-12T00:02:46;23.60;99.90
17715;DHT22;8977;50.902;4.314;2023-08-12T00:05:14;23.50;99.90
17715;DHT22;8977;50.902;4.314;2023-08-12T00:07:41;23.50;99.90
17715;DHT22;8977;50.902;4.314;2023-08-12T00:10:10;23.50;99.90
17715;DHT22;8977;50.902;4.314;2023-08-12T00:12:37;23.50;99.90
17715;DHT22;8977;50.902;4.314;2023-08-12T00:15:08;23.50;99.90
17715;DHT22;8977;50.902;4.314;2023-08-12T00:17:36;23.50;99.90
17715;DHT22;8977;50.902;4.314;2023-08-12T00:20:07;23.50;99.90
17715;DHT22;8977;50.902;4.314;2023-08-12T00:22:36;23.50;99.90
17715;DHT22;8977;50.902;4.314;2023-08-12T00:25:04;23.50;99.90
17715;DHT22;8977;50.902;4.314;2023-08-12T00:27:31;23.50;99.90
17715;DHT22;8977;50.902;4.314;2023-08-12T00:29:58;23.50;99.90
17715;DHT22;8977;50.902;4.314;2023-08-12T00:32:26;23.50;99.90
17715;DHT22;8977;50.902;4.314;2023-08-12T00:34:53;23.50;99.90
17715;DHT22;8977;50.902;4.314;2023-08-12T00:37:20;23.50;99.90
17715;DHT22;8977;50.902;4.314;2023-08-12T00:39:47;23.50;99.90
17715;DHT22;8977;50.902;4.314;2023-08-12T00:42:14;23.50;99.90
17715;DHT22;8977;50.902;4.314;2023-08-12T00:44:41;23.50;99.90
17715;DHT22;8977;50.902;4.314;2023-08-12T00:47:08;23.50;99.90
17715;DHT22;8977;50.902;4.314;2023-08-12T00:49:37;23.50;99.90
17715;DHT22;8977;50.902;4.314;2023-08-12T00:52:06;23.50;99.90
17715;DHT22;8977;50.902;4.314;2023-08-12T00:54:33;23.40;99.90
17715;DHT22;8977;50.902;4.314;2023-08-12T00:57:00;23.40;99.90
17715;DHT22;8977;50.902;4.314;2023-08-12T00:59:27;23.40;99.90
17715;DHT22;8977;50.902;4.314;2023-08-12T01:01:55;23.40;99.90
17715;DHT22;8977;50.902;4.314;2023-08-12T01:04:22;23.40;99.90
17715;DHT22;8977;50.902;4.314;2023-08-12T01:06:50;23.40;99.90
17715;DHT22;8977;50.902;4.314;2023-08-12T01:09:17;23.40;99.90
17715;DHT22;8977;50.902;4.314;2023-08-12T01:11:49;23.40;99.90
17715;DHT22;8977;50.902;4.314;2023-08-12T01:14:21;23.40;99.90
17715;DHT22;8977;50.902;4.314;2023-08-12T01:16:51;23.40;99.90
17715;DHT22;8977;50.902;4.314;2023-08-12T01:19:25;23.40;99.90
17715;DHT22;8977;50.902;4.314;2023-08-12T01:21:59;23.40;99.90
17715;DHT22;8977;50.902;4.314;2023-08-12T01:24:34;23.40;99.90
17715;DHT22;8977;50.902;4.314;2023-08-12T01:27:02;23.40;99.90
17715;DHT22;8977;50.902;4.314;2023-08-12T01:29:30;23.40;99.90
17715;DHT22;8977;50.902;4.314;2023-08-12T01:32:04;23.30;99.90
17715;DHT22;8977;50.902;4.314;2023-08-12T01:34:39;23.40;99.90
17715;DHT22;8977;50.902;4.314;2023-08-12T01:37:09;23.30;99.90
17715;DHT22;8977;50.902;4.314;2023-08-12T01:39:39;23.30;99.90
17715;DHT22;8977;50.902;4.314;2023-08-12T01:42:09;23.30;99.90
17715;DHT22;8977;50.902;4.314;2023-08-12T01:44:37;23.20;99.90
17715;DHT22;8977;50.902;4.314;2023-08-12T01:47:05;23.20;99.90
17715;DHT22;8977;50.902;4.314;2023-08-12T01:49:32;23.20;99.90
17715;DHT22;8977;50.902;4.314;2023-08-12T01:51:59;23.20;99.90
17715;DHT22;8977;50.902;4.314;2023-08-12T01:54:26;23.20;99.90
17715;DHT22;8977;50.902;4.314;2023-08-12T01:56:54;23.20;99.90
17715;DHT22;8977;50.902;4.314;2023-08-12T01:59:21;23.20;99.90
17715;DHT22;8977;50.902;4.314;2023-08-12T02:01:48;23.20;99.90
17715;DHT22;8977;50.902;4.314;2023-08-12T02:04:15;23.20;99.90
17715;DHT22;8977;50.902;4.314;2023-08-12T02:06:42;23.20;99.90
17715;DHT22;8977;50.902;4.314;2023-08-12T02:09:09;23.20;99.90
17715;DHT22;8977;50.902;4.314;2023-08-12T02:11:36;23.20;99.90
17715;DHT22;8977;50.902;4.314;2023-08-12T02:14:04;23.20;99.90
17715;DHT22;8977;50.902;4.314;2023-08-12T02:16:31;23.20;99.90
17715;DHT22;8977;50.902;4.314;2023-08-12T02:18:58;23.20;99.90
17715;DHT22;8977;50.902;4.314;2023-08-12T02:21:25;23.10;99.90
17715;DHT22;8977;50.902;4.314;2023-08-12T02:23:52;23.20;99.90
17715;DHT22;8977;50.902;4.314;2023-08-12T02:26:19;23.10;99.90
17715;DHT22;8977;50.902;4.314;2023-08-12T02:28:46;23.10;99.90
17715;DHT22;8977;50.902;4.314;2023-08-12T02:31:15;23.10;99.90
17715;DHT22;8977;50.902;4.314;2023-08-12T02:33:42;23.10;99.90
17715;DHT22;8977;50.902;4.314;2023-08-12T02:36:09;23.10;99.90
17715;DHT22;8977;50.902;4.314;2023-08-12T02:38:36;23.10;99.90
17715;DHT22;8977;50.902;4.314;2023-08-12T02:41:03;23.10;99.90
17715;DHT22;8977;50.902;4.314;2023-08-12T02:43:30;23.10;99.90
17715;DHT22;8977;50.902;4.314;2023-08-12T02:45:57;23.10;99.90
17715;DHT22;8977;50.902;4.314;2023-08-12T02:48:25;23.10;99.90
17715;DHT22;8977;50.902;4.314;2023-08-12T02:50:52;23.10;99.90
17715;DHT22;8977;50.902;4.314;2023-08-12T02:53:19;23.10;99.90
17715;DHT22;8977;50.902;4.314;2023-08-12T02:55:46;23.10;99.90
17715;DHT22;8977;50.902;4.314;2023-08-12T02:58:13;23.10;99.90
17715;DHT22;8977;50.902;4.314;2023-08-12T03:00:41;23.10;99.90
17715;DHT22;8977;50.902;4.314;2023-08-12T03:03:09;23.10;99.90
17715;DHT22;8977;50.902;4.314;2023-08-12T03:05:37;23.10;99.90
17715;DHT22;8977;50.902;4.314;2023-08-12T03:08:05;23.10;99.90
17715;DHT22;8977;50.902;4.314;2023-08-12T03:10:33;23.10;99.90
17715;DHT22;8977;50.902;4.314;2023-08-12T03:13:00;23.10;99.90
17715;DHT22;8977;50.902;4.314;2023-08-12T03:15:27;23.10;99.90
17715;DHT22;8977;50.902;4.314;2023-08-12T03:17:55;23.00;99.90
17715;DHT22;8977;50.902;4.314;2023-08-12T03:20:22;23.00;99.90
17715;DHT22;8977;50.902;4.314;2023-08-12T03:22:51;23.00;99.90
17715;DHT22;8977;50.902;4.314;2023-08-12T03:25:18;23.00;99.90
17715;DHT22;8977;50.902;4.314;2023-08-12T03:27:45;23.00;99.90
17715;DHT22;8977;50.902;4.314;2023-08-12T03:30:13;23.00;99.90
17715;DHT22;8977;50.902;4.314;2023-08-12T03:32:39;23.00;99.90
17715;DHT22;8977;50.902;4.314;2023-08-12T03:35:07;23.00;99.90
17715;DHT22;8977;50.902;4.314;2023-08-12T03:37:34;23.00;99.90
17715;DHT22;8977;50.902;4.314;2023-08-12T03:40:03;23.00;99.90
17715;DHT22;8977;50.902;4.314;2023-08-12T03:42:30;23.00;99.90
17715;DHT22;8977;50.902;4.314;2023-08-12T03:44:57;23.00;99.90
17715;DHT22;8977;50.902;4.314;2023-08-12T03:47:24;23.00;99.90
17715;DHT22;8977;50.902;4.314;2023-08-12T03:49:51;23.00;99.90
17715;DHT22;8977;50.902;4.314;2023-08-12T03:52:19;23.00;99.90
17715;DHT22;8977;50.902;4.314;2023-08-12T03:54:46;23.00;99.90
17715;DHT22;8977;50.902;4.314;2023-08-12T03:57:15;23.00;99.90
17715;DHT22;8977;50.902;4.314;2023-08-12T03:59:42;23.00;99.90
17715;DHT22;8977;50.902;4.314;2023-08-12T04:02:09;23.00;99.90
17715;DHT22;8977;50.902;4.314;2023-08-12T04:04:36;23.00;99.90
17715;DHT22;8977;50.902;4.314;2023-08-12T04:07:03;22.90;99.90
17715;DHT22;8977;50.902;4.314;2023-08-12T04:09:30;23.00;99.90
17715;DHT22;8977;50.902;4.314;2023-08-12T04:11:57;22.90;99.90
17715;DHT22;8977;50.902;4.314;2023-08-12T04:14:25;22.90;99.90
17715;DHT22;8977;50.902;4.314;2023-08-12T04:16:52;22.90;99.90
17715;DHT22;8977;50.902;4.314;2023-08-12T04:19:19;23.00;99.90
17715;DHT22;8977;50.902;4.314;2023-08-12T04:21:46;23.00;99.90
17715;DHT22;8977;50.902;4.314;2023-08-12T04:24:13;23.00;99.90
17715;DHT22;8977;50.902;4.314;2023-08-12T04:26:40;22.90;99.90
17715;DHT22;8977;50.902;4.314;2023-08-12T04:29:07;23.00;99.90
17715;DHT22;8977;50.902;4.314;2023-08-12T04:31:35;22.90;99.90
17715;DHT22;8977;50.902;4.314;2023-08-12T04:34:03;22.90;99.90
17715;DHT22;8977;50.902;4.314;2023-08-12T04:36:30;22.90;99.90
17715;DHT22;8977;50.902;4.314;2023-08-12T04:38:57;22.90;99.90
17715;DHT22;8977;50.902;4.314;2023-08-12T04:41:24;22.90;99.90
17715;DHT22;8977;50.902;4.314;2023-08-12T04:43:51;22.80;99.90
17715;DHT22;8977;50.902;4.314;2023-08-12T04:46:18;22.80;99.90
17715;DHT22;8977;50.902;4.314;2023-08-12T04:48:46;22.80;99.90
17715;DHT22;8977;50.902;4.314;2023-08-12T04:51:13;22.80;99.90
17715;DHT22;8977;50.902;4.314;2023-08-12T04:53:41;22.80;99.90
17715;DHT22;8977;50.902;4.314;2023-08-12T04:56:08;22.80;99.90
17715;DHT22;8977;50.902;4.314;2023-08-12T04:58:35;22.80;99.90
17715;DHT22;8977;50.902;4.314;2023-08-12T05:01:02;22.80;99.90
17715;DHT22;8977;50.902;4.314;2023-08-12T05:03:29;22.80;99.90
17715;DHT22;8977;50.902;4.314;2023-08-12T05:05:58;22.80;99.90
17715;DHT22;8977;50.902;4.314;2023-08-12T05:08:25;22.90;99.90
17715;DHT22;8977;50.902;4.314;2023-08-12T05:10:52;22.80;99.90
17715;DHT22;8977;50.902;4.314;2023-08-12T05:13:19;22.80;99.90
17715;DHT22;8977;50.902;4.314;2023-08-12T05:15:47;22.80;99.90
17715;DHT22;8977;50.902;4.314;2023-08-12T05:18:14;22.80;99.90
17715;DHT22;8977;50.902;4.314;2023-08-12T05:20:41;22.80;99.90
17715;DHT22;8977;50.902;4.314;2023-08-12T05:23:09;22.80;99.90
17715;DHT22;8977;50.902;4.314;2023-08-12T05:25:36;22.80;99.90
17715;DHT22;8977;50.902;4.314;2023-08-12T05:28:05;22.80;99.90
17715;DHT22;8977;50.902;4.314;2023-08-12T05:30:33;22.80;99.90
17715;DHT22;8977;50.902;4.314;2023-08-12T05:33:00;22.80;99.90
17715;DHT22;8977;50.902;4.314;2023-08-12T05:35:28;22.80;99.90
17715;DHT22;8977;50.902;4.314;2023-08-12T05:37:55;22.80;99.90
17715;DHT22;8977;50.902;4.314;2023-08-12T05:40:23;22.80;99.90
17715;DHT22;8977;50.902;4.314;2023-08-12T05:42:50;22.80;99.90
17715;DHT22;8977;50.902;4.314;2023-08-12T05:45:17;22.80;99.90
17715;DHT22;8977;50.902;4.314;2023-08-12T05:47:44;22.80;99.90
17715;DHT22;8977;50.902;4.314;2023-08-12T05:50:11;22.90;99.90
17715;DHT22;8977;50.902;4.314;2023-08-12T05:52:38;22.90;99.90
17715;DHT22;8977;50.902;4.314;2023-08-12T05:55:06;22.80;99.90
17715;DHT22;8977;50.902;4.314;2023-08-12T05:57:34;22.80;99.90
17715;DHT22;8977;50.902;4.314;2023-08-12T06:00:02;22.80;99.90
17715;DHT22;8977;50.902;4.314;2023-08-12T06:02:29;22.80;99.90
17715;DHT22;8977;50.902;4.314;2023-08-12T06:04:56;22.80;99.90
17715;DHT22;8977;50.902;4.314;2023-08-12T06:07:23;22.80;99.90
17715;DHT22;8977;50.902;4.314;2023-08-12T06:09:50;22.70;99.90
17715;DHT22;8977;50.902;4.314;2023-08-12T06:12:17;22.70;99.90
17715;DHT22;8977;50.902;4.314;2023-08-12T06:14:45;22.80;99.90
17715;DHT22;8977;50.902;4.314;2023-08-12T06:17:12;22.80;99.90
17715;DHT22;8977;50.902;4.314;2023-08-12T06:19:39;22.80;99.90
17715;DHT22;8977;50.902;4.314;2023-08-12T06:22:06;22.70;99.90
17715;DHT22;8977;50.902;4.314;2023-08-12T06:24:33;22.70;99.90
17715;DHT22;8977;50.902;4.314;2023-08-12T06:27:00;22.70;99.90
17715;DHT22;8977;50.902;4.314;2023-08-12T06:29:27;22.70;99.90
17715;DHT22;8977;50.902;4.314;2023-08-12T06:31:55;22.70;99.90
17715;DHT22;8977;50.902;4.314;2023-08-12T06:34:22;22.70;99.90
17715;DHT22;8977;50.902;4.314;2023-08-12T06:36:49;22.70;99.90
17715;DHT22;8977;50.902;4.314;2023-08-12T06:39:16;22.80;99.90
17715;DHT22;8977;50.902;4.314;2023-08-12T06:41:43;22.80;99.90
17715;DHT22;8977;50.902;4.314;2023-08-12T06:44:10;22.80;99.90
17715;DHT22;8977;50.902;4.314;2023-08-12T06:46:36;22.70;99.90
17715;DHT22;8977;50.902;4.314;2023-08-12T06:49:05;22.70;99.90
17715;DHT22;8977;50.902;4.314;2023-08-12T06:51:32;22.70;99.90
17715;DHT22;8977;50.902;4.314;2023-08-12T06:53:59;22.70;99.90
17715;DHT22;8977;50.902;4.314;2023-08-12T06:56:26;22.80;99.90
17715;DHT22;8977;50.902;4.314;2023-08-12T06:58:53;22.80;99.90
17715;DHT22;8977;50.902;4.314;2023-08-12T07:01:20;22.70;99.90
17715;DHT22;8977;50.902;4.314;2023-08-12T07:03:47;22.70;99.90
17715;DHT22;8977;50.902;4.314;2023-08-12T07:06:15;22.70;99.90
17715;DHT22;8977;50.902;4.314;2023-08-12T07:08:42;22.70;99.90
17715;DHT22;8977;50.902;4.314;2023-08-12T07:11:09;22.70;99.90
17715;DHT22;8977;50.902;4.314;2023-08-12T07:13:36;22.70;99.90
17715;DHT22;8977;50.902;4.314;2023-08-12T07:16:03;22.60;99.90
17715;DHT22;8977;50.902;4.314;2023-08-12T07:18:30;22.60;99.90
17715;DHT22;8977;50.902;4.314;2023-08-12T07:20:57;22.50;99.90
17715;DHT22;8977;50.902;4.314;2023-08-12T07:23:26;22.40;99.90
17715;DHT22;8977;50.902;4.314;2023-08-12T07:25:54;22.40;99.90
17715;DHT22;8977;50.902;4.314;2023-08-12T07:28:22;22.50;99.90
17715;DHT22;8977;50.902;4.314;2023-08-12T07:30:49;22.40;99.90
17715;DHT22;8977;50.902;4.314;2023-08-12T07:33:19;22.30;99.90
17715;DHT22;8977;50.902;4.314;2023-08-12T07:35:46;22.30;99.90
17715;DHT22;8977;50.902;4.314;2023-08-12T07:38:13;22.30;99.90
17715;DHT22;8977;50.902;4.314;2023-08-12T07:40:41;22.30;99.90
17715;DHT22;8977;50.902;4.314;2023-08-12T07:43:08;22.30;99.90
17715;DHT22;8977;50.902;4.314;2023-08-12T07:45:35;22.30;99.90
17715;DHT22;8977;50.902;4.314;2023-08-12T07:48:02;22.30;99.90
17715;DHT22;8977;50.902;4.314;2023-08-12T07:50:29;22.30;99.90
17715;DHT22;8977;50.902;4.314;2023-08-12T07:52:57;22.30;99.90
17715;DHT22;8977;50.902;4.314;2023-08-12T07:55:24;22.40;99.90
17715;DHT22;8977;50.902;4.314;2023-08-12T07:57:52;22.40;99.90
17715;DHT22;8977;50.902;4.314;2023-08-12T08:00:19;22.60;99.90
17715;DHT22;8977;50.902;4.314;2023-08-12T08:02:46;22.50;99.90
17715;DHT22;8977;50.902;4.314;2023-08-12T08:05:13;22.50;99.90
17715;DHT22;8977;50.902;4.314;2023-08-12T08:07:40;22.50;99.90
17715;DHT22;8977;50.902;4.314;2023-08-12T08:10:08;22.40;99.90
17715;DHT22;8977;50.902;4.314;2023-08-12T08:12:36;22.40;99.90
17715;DHT22;8977;50.902;4.314;2023-08-12T08:15:05;22.40;99.90
17715;DHT22;8977;50.902;4.314;2023-08-12T08:17:32;22.30;99.90
17715;DHT22;8977;50.902;4.314;2023-08-12T08:19:59;22.40;99.90
17715;DHT22;8977;50.902;4.314;2023-08-12T08:22:26;22.30;99.90
17715;DHT22;8977;50.902;4.314;2023-08-12T08:24:53;22.30;99.90
17715;DHT22;8977;50.902;4.314;2023-08-12T08:27:20;22.30;99.90
17715;DHT22;8977;50.902;4.314;2023-08-12T08:29:47;22.30;99.90
17715;DHT22;8977;50.902;4.314;2023-08-12T08:32:15;22.40;99.90
17715;DHT22;8977;50.902;4.314;2023-08-12T08:34:42;22.40;99.90
17715;DHT22;8977;50.902;4.314;2023-08-12T08:37:09;22.40;99.90
17715;DHT22;8977;50.902;4.314;2023-08-12T08:39:36;22.30;99.90
17715;DHT22;8977;50.902;4.314;2023-08-12T08:42:05;22.30;99.90
17715;DHT22;8977;50.902;4.314;2023-08-12T08:44:33;22.30;99.90
17715;DHT22;8977;50.902;4.314;2023-08-12T08:47:01;22.40;99.90
17715;DHT22;8977;50.902;4.314;2023-08-12T08:49:30;22.30;99.90
17715;DHT22;8977;50.902;4.314;2023-08-12T08:51:59;22.30;99.90
17715;DHT22;8977;50.902;4.314;2023-08-12T08:54:27;22.30;99.90
17715;DHT22;8977;50.902;4.314;2023-08-12T08:56:54;22.40;99.90
17715;DHT22;8977;50.902;4.314;2023-08-12T08:59:21;22.30;99.90
17715;DHT22;8977;50.902;4.314;2023-08-12T09:01:49;22.40;99.90
17715;DHT22;8977;50.902;4.314;2023-08-12T09:04:18;22.40;99.90
17715;DHT22;8977;50.902;4.314;2023-08-12T09:06:50;22.30;99.90
17715;DHT22;8977;50.902;4.314;2023-08-12T09:09:20;22.40;99.90
17715;DHT22;8977;50.902;4.314;2023-08-12T09:11:49;22.30;99.90
17715;DHT22;8977;50.902;4.314;2023-08-12T09:14:18;22.30;99.90
17715;DHT22;8977;50.902;4.314;2023-08-12T09:16:45;22.30;99.90
17715;DHT22;8977;50.902;4.314;2023-08-12T09:19:12;22.30;99.90
17715;DHT22;8977;50.902;4.314;2023-08-12T09:21:39;22.40;99.90
17715;DHT22;8977;50.902;4.314;2023-08-12T09:24:08;22.40;99.90
17715;DHT22;8977;50.902;4.314;2023-08-12T09:26:35;22.40;99.90
17715;DHT22;8977;50.902;4.314;2023-08-12T09:29:02;22.40;99.90
17715;DHT22;8977;50.902;4.314;2023-08-12T09:31:31;22.40;99.90
17715;DHT22;8977;50.902;4.314;2023-08-12T09:33:59;22.50;99.90
17715;DHT22;8977;50.902;4.314;2023-08-12T09:36:28;22.40;99.90
17715;DHT22;8977;50.902;4.314;2023-08-12T09:38:56;22.40;99.90
17715;DHT22;8977;50.902;4.314;2023-08-12T09:41:26;22.40;99.90
17715;DHT22;8977;50.902;4.314;2023-08-12T09:43:54;22.40;99.90
17715;DHT22;8977;50.902;4.314;2023-08-12T09:46:22;22.40;99.90
17715;DHT22;8977;50.902;4.314;2023-08-12T09:48:50;22.40;99.90
17715;DHT22;8977;50.902;4.314;2023-08-12T09:51:18;22.40;99.90
17715;DHT22;8977;50.902;4.314;2023-08-12T09:53:46;22.40;99.90
17715;DHT22;8977;50.902;4.314;2023-08-12T09:56:17;22.40;99.90
17715;DHT22;8977;50.902;4.314;2023-08-12T09:58:48;22.50;99.90
17715;DHT22;8977;50.902;4.314;2023-08-12T10:01:18;22.60;99.90
17715;DHT22;8977;50.902;4.314;2023-08-12T10:03:49;22.60;99.90
17715;DHT22;8977;50.902;4.314;2023-08-12T10:06:17;22.50;99.90
17715;DHT22;8977;50.902;4.314;2023-08-12T10:08:46;22.60;99.90
17715;DHT22;8977;50.902;4.314;2023-08-12T10:11:13;22.50;99.90
17715;DHT22;8977;50.902;4.314;2023-08-12T10:13:41;22.50;99.90
17715;DHT22;8977;50.902;4.314;2023-08-12T10:16:10;22.50;99.90
17715;DHT22;8977;50.902;4.314;2023-08-12T10:18:39;22.60;99.90
17715;DHT22;8977;50.902;4.314;2023-08-12T10:21:09;22.60;99.90
17715;DHT22;8977;50.902;4.314;2023-08-12T10:23:36;22.60;99.90
17715;DHT22;8977;50.902;4.314;2023-08-12T10:26:05;22.60;99.90
17715;DHT22;8977;50.902;4.314;2023-08-12T10:28:33;22.70;99.90
17715;DHT22;8977;50.902;4.314;2023-08-12T10:31:03;22.70;99.90
17715;DHT22;8977;50.902;4.314;2023-08-12T10:33:35;22.70;99.90
17715;DHT22;8977;50.902;4.314;2023-08-12T10:36:03;22.80;99.90
17715;DHT22;8977;50.902;4.314;2023-08-12T10:38:31;22.80;99.90
17715;DHT22;8977;50.902;4.314;2023-08-12T10:41:14;22.90;99.90
17715;DHT22;8977;50.902;4.314;2023-08-12T10:43:49;22.90;99.90
17715;DHT22;8977;50.902;4.314;2023-08-12T10:46:21;23.00;99.90
17715;DHT22;8977;50.902;4.314;2023-08-12T10:48:58;23.00;99.90
17715;DHT22;8977;50.902;4.314;2023-08-12T10:51:40;23.00;99.90
17715;DHT22;8977;50.902;4.314;2023-08-12T10:54:13;23.10;99.90
17715;DHT22;8977;50.902;4.314;2023-08-12T10:57:08;23.10;99.90
17715;DHT22;8977;50.902;4.314;2023-08-12T10:59:51;23.10;99.90
17715;DHT22;8977;50.902;4.314;2023-08-12T11:02:20;23.10;99.90
17715;DHT22;8977;50.902;4.314;2023-08-12T11:04:54;23.20;99.90
17715;DHT22;8977;50.902;4.314;2023-08-12T11:07:22;23.10;99.90
17715;DHT22;8977;50.902;4.314;2023-08-12T11:09:58;23.20;99.90
17715;DHT22;8977;50.902;4.314;2023-08-12T11:12:30;23.20;99.90
17715;DHT22;8977;50.902;4.314;2023-08-12T11:14:58;23.20;99.90
17715;DHT22;8977;50.902;4.314;2023-08-12T11:17:36;23.30;99.90
17715;DHT22;8977;50.902;4.314;2023-08-12T11:20:06;23.30;99.90
17715;DHT22;8977;50.902;4.314;2023-08-12T11:22:36;23.40;99.90
17715;DHT22;8977;50.902;4.314;2023-08-12T11:25:04;23.40;99.90
17715;DHT22;8977;50.902;4.314;2023-08-12T11:27:40;23.40;99.90
17715;DHT22;8977;50.902;4.314;2023-08-12T11:30:09;23.50;99.90
17715;DHT22;8977;50.902;4.314;2023-08-12T11:32:37;23.50;99.90
17715;DHT22;8977;50.902;4.314;2023-08-12T11:35:07;23.60;99.90
17715;DHT22;8977;50.902;4.314;2023-08-12T11:37:36;23.60;99.90
17715;DHT22;8977;50.902;4.314;2023-08-12T11:40:05;23.70;99.90
17715;DHT22;8977;50.902;4.314;2023-08-12T11:42:34;23.70;99.90
17715;DHT22;8977;50.902;4.314;2023-08-12T11:45:01;23.70;99.90
17715;DHT22;8977;50.902;4.314;2023-08-12T11:47:28;23.70;99.90
17715;DHT22;8977;50.902;4.314;2023-08-12T11:49:55;23.70;99.90
17715;DHT22;8977;50.902;4.314;2023-08-12T11:52:23;23.70;99.90
17715;DHT22;8977;50.902;4.314;2023-08-12T11:54:51;23.80;99.90
17715;DHT22;8977;50.902;4.314;2023-08-12T11:57:19;23.80;99.90
17715;DHT22;8977;50.902;4.314;2023-08-12T11:59:45;23.80;99.90
17715;DHT22;8977;50.902;4.314;2023-08-12T12:02:12;23.80;99.90
17715;DHT22;8977;50.902;4.314;2023-08-12T12:04:41;23.80;99.90
17715;DHT22;8977;50.902;4.314;2023-08-12T12:07:18;23.90;99.90
17715;DHT22;8977;50.902;4.314;2023-08-12T12:09:47;23.90;99.90
17715;DHT22;8977;50.902;4.314;2023-08-12T12:12:14;24.00;99.90
17715;DHT22;8977;50.902;4.314;2023-08-12T12:14:40;24.10;99.90
17715;DHT22;8977;50.902;4.314;2023-08-12T12:17:08;24.10;99.90
17715;DHT22;8977;50.902;4.314;2023-08-12T12:19:36;24.20;99.90
17715;DHT22;8977;50.902;4.314;2023-08-12T12:22:04;24.30;99.90
17715;DHT22;8977;50.902;4.314;2023-08-12T12:24:31;24.20;99.90
17715;DHT22;8977;50.902;4.314;2023-08-12T12:27:11;24.20;99.90
17715;DHT22;8977;50.902;4.314;2023-08-12T12:29:38;24.30;99.90
17715;DHT22;8977;50.902;4.314;2023-08-12T12:32:05;24.40;99.90
17715;DHT22;8977;50.902;4.314;2023-08-12T12:34:32;24.40;99.90
17715;DHT22;8977;50.902;4.314;2023-08-12T12:36:59;24.50;99.90
17715;DHT22;8977;50.902;4.314;2023-08-12T12:39:26;24.50;99.90
17715;DHT22;8977;50.902;4.314;2023-08-12T12:41:53;24.50;99.90
17715;DHT22;8977;50.902;4.314;2023-08-12T12:44:21;24.60;99.90
17715;DHT22;8977;50.902;4.314;2023-08-12T12:46:48;24.60;99.90
17715;DHT22;8977;50.902;4.314;2023-08-12T12:49:15;24.60;99.90
17715;DHT22;8977;50.902;4.314;2023-08-12T12:51:42;24.50;99.90
17715;DHT22;8977;50.902;4.314;2023-08-12T12:54:09;24.50;99.90
17715;DHT22;8977;50.902;4.314;2023-08-12T12:56:36;24.50;99.90
17715;DHT22;8977;50.902;4.314;2023-08-12T12:59:03;24.50;99.90
17715;DHT22;8977;50.902;4.314;2023-08-12T13:01:33;24.50;99.90
17715;DHT22;8977;50.902;4.314;2023-08-12T13:04:00;24.70;99.90
17715;DHT22;8977;50.902;4.314;2023-08-12T13:06:26;24.80;99.90
17715;DHT22;8977;50.902;4.314;2023-08-12T13:08:53;24.90;99.90
17715;DHT22;8977;50.902;4.314;2023-08-12T13:11:20;24.90;99.90
17715;DHT22;8977;50.902;4.314;2023-08-12T13:13:47;25.10;99.90
17715;DHT22;8977;50.902;4.314;2023-08-12T13:16:14;25.20;99.90
17715;DHT22;8977;50.902;4.314;2023-08-12T13:18:42;25.20;99.90
17715;DHT22;8977;50.902;4.314;2023-08-12T13:21:09;25.30;99.90
17715;DHT22;8977;50.902;4.314;2023-08-12T13:23:36;25.30;99.90
17715;DHT22;8977;50.902;4.314;2023-08-12T13:26:03;25.40;99.90
17715;DHT22;8977;50.902;4.314;2023-08-12T13:28:30;25.40;99.90
17715;DHT22;8977;50.902;4.314;2023-08-12T13:30:57;25.40;99.90
17715;DHT22;8977;50.902;4.314;2023-08-12T13:33:24;25.50;99.90
17715;DHT22;8977;50.902;4.314;2023-08-12T13:35:53;25.50;99.90
17715;DHT22;8977;50.902;4.314;2023-08-12T13:38:20;25.60;99.90
17715;DHT22;8977;50.902;4.314;2023-08-12T13:40:48;25.70;99.90
17715;DHT22;8977;50.902;4.314;2023-08-12T13:43:15;25.70;99.90
17715;DHT22;8977;50.902;4.314;2023-08-12T13:45:42;25.70;99.90
17715;DHT22;8977;50.902;4.314;2023-08-12T13:48:09;25.60;99.90
17715;DHT22;8977;50.902;4.314;2023-08-12T13:50:36;25.70;99.90
17715;DHT22;8977;50.902;4.314;2023-08-12T13:53:05;25.80;99.90
17715;DHT22;8977;50.902;4.314;2023-08-12T13:55:31;25.70;99.90
17715;DHT22;8977;50.902;4.314;2023-08-12T13:57:58;25.70;99.90
17715;DHT22;8977;50.902;4.314;2023-08-12T14:00:25;25.80;99.90
17715;DHT22;8977;50.902;4.314;2023-08-12T14:02:52;25.80;99.90
17715;DHT22;8977;50.902;4.314;2023-08-12T14:05:19;25.80;99.90
17715;DHT22;8977;50.902;4.314;2023-08-12T14:07:46;25.70;99.90
17715;DHT22;8977;50.902;4.314;2023-08-12T14:10:14;25.70;99.90
17715;DHT22;8977;50.902;4.314;2023-08-12T14:12:41;25.60;99.90
17715;DHT22;8977;50.902;4.314;2023-08-12T14:15:09;25.60;99.90
17715;DHT22;8977;50.902;4.314;2023-08-12T14:17:36;25.60;99.90
17715;DHT22;8977;50.902;4.314;2023-08-12T14:20:03;25.50;99.90
17715;DHT22;8977;50.902;4.314;2023-08-12T14:22:33;25.40;99.90
17715;DHT22;8977;50.902;4.314;2023-08-12T14:25:00;25.40;99.90
17715;DHT22;8977;50.902;4.314;2023-08-12T14:27:31;25.30;99.90
17715;DHT22;8977;50.902;4.314;2023-08-12T14:29:58;25.30;99.90
17715;DHT22;8977;50.902;4.314;2023-08-12T14:32:25;25.30;99.90
17715;DHT22;8977;50.902;4.314;2023-08-12T14:34:52;25.30;99.90
17715;DHT22;8977;50.902;4.314;2023-08-12T14:37:19;25.30;99.90
17715;DHT22;8977;50.902;4.314;2023-08-12T14:39:46;25.20;99.90
17715;DHT22;8977;50.902;4.314;2023-08-12T14:42:13;25.10;99.90
17715;DHT22;8977;50.902;4.314;2023-08-12T14:44:41;25.10;99.90
17715;DHT22;8977;50.902;4.314;2023-08-12T14:47:08;25.10;99.90
17715;DHT22;8977;50.902;4.314;2023-08-12T14:49:35;25.10;99.90
17715;DHT22;8977;50.902;4.314;2023-08-12T14:52:02;25.00;99.90
17715;DHT22;8977;50.902;4.314;2023-08-12T14:54:29;25.00;99.90
17715;DHT22;8977;50.902;4.314;2023-08-12T14:56:56;25.00;99.90
17715;DHT22;8977;50.902;4.314;2023-08-12T14:59:22;25.00;99.90
17715;DHT22;8977;50.902;4.314;2023-08-12T15:01:51;25.00;99.90
17715;DHT22;8977;50.902;4.314;2023-08-12T15:04:18;25.10;99.90
17715;DHT22;8977;50.902;4.314;2023-08-12T15:06:44;25.10;99.90
17715;DHT22;8977;50.902;4.314;2023-08-12T15:09:11;25.20;99.90
17715;DHT22;8977;50.902;4.314;2023-08-12T15:11:38;25.20;99.90
17715;DHT22;8977;50.902;4.314;2023-08-12T15:14:05;25.20;99.90
17715;DHT22;8977;50.902;4.314;2023-08-12T15:16:32;25.30;99.90
17715;DHT22;8977;50.902;4.314;2023-08-12T15:19:01;25.40;99.90
17715;DHT22;8977;50.902;4.314;2023-08-12T15:21:29;25.40;99.90
17715;DHT22;8977;50.902;4.314;2023-08-12T15:23:55;25.50;99.90
17715;DHT22;8977;50.902;4.314;2023-08-12T15:26:23;25.60;99.90
17715;DHT22;8977;50.902;4.314;2023-08-12T15:28:51;25.50;99.90
17715;DHT22;8977;50.902;4.314;2023-08-12T15:31:18;25.60;99.90
17715;DHT22;8977;50.902;4.314;2023-08-12T15:33:45;25.60;99.90
17715;DHT22;8977;50.902;4.314;2023-08-12T15:36:13;25.60;99.90
17715;DHT22;8977;50.902;4.314;2023-08-12T15:38:40;25.70;99.90
17715;DHT22;8977;50.902;4.314;2023-08-12T15:41:12;25.70;99.90
17715;DHT22;8977;50.902;4.314;2023-08-12T15:43:40;25.70;99.90
17715;DHT22;8977;50.902;4.314;2023-08-12T15:46:07;25.80;99.90
17715;DHT22;8977;50.902;4.314;2023-08-12T15:48:34;25.80;99.90